Time;durP1;ratioP1;P1;durP2;ratioP2;P2;SDS_P1;SDS_P2;PMS_P1;PMS_P2;Temp;Humidity;BMP_temperature;BMP_pressure;BME280_temperature;BME280_humidity;BME280_pressure;Samples;Min_cycle;Max_cycle;Signal;HPM_P1;HPM_P2
2023/10/13 00:00:59;;;;;;;4.90;4.15;;;;;;;;;;5988178;29;20057;-95
2023/10/13 00:04:05;;;;;;;3.45;3.33;;;;;;;;;;5997760;29;20058;-95
2023/10/13 00:07:09;;;;;;;4.10;3.88;;;;;;;;;;5978375;29;20584;-96
2023/10/13 00:10:18;;;;;;;3.60;3.45;;;;;;;;;;5997981;29;20944;-95
2023/10/13 00:13:21;;;;;;;4.13;3.92;;;;;;;;;;5986178;29;20054;-95
2023/10/13 00:16:31;;;;;;;3.83;3.55;;;;;;;;;;5999077;29;20042;-96
2023/10/13 00:19:45;;;;;;;5.20;3.60;;;;;;;;;;5985453;29;20065;-93
2023/10/13 00:22:51;;;;;;;3.35;3.20;;;;;;;;;;5995265;29;20042;-96
2023/10/13 00:25:59;;;;;;;3.38;3.28;;;;;;;;;;6011816;29;20507;-96
2023/10/13 00:29:08;;;;;;;3.55;3.25;;;;;;;;;;5993041;29;20574;-95
2023/10/13 00:32:12;;;;;;;3.20;3.10;;;;;;;;;;5989092;29;20054;-96
2023/10/13 00:35:15;;;;;;;3.15;3.05;;;;;;;;;;5996462;29;20050;-95
2023/10/13 00:38:23;;;;;;;4.05;3.85;;;;;;;;;;5990593;29;20062;-95
2023/10/13 00:41:50;;;;;;;4.05;3.85;;;;;;;;;;6001839;29;20042;-95
2023/10/13 00:44:48;;;;;;;4.38;4.18;;;;;;;;;;5995698;29;20054;-96
2023/10/13 00:47:57;;;;;;;3.05;2.95;;;;;;;;;;5986125;29;20054;-95
2023/10/13 00:51:02;;;;;;;3.97;3.78;;;;;;;;;;5987867;29;20065;-95
2023/10/13 00:54:11;;;;;;;5.22;4.88;;;;;;;;;;5990422;29;20081;-94
2023/10/13 00:57:29;;;;;;;4.22;3.92;;;;;;;;;;5990838;29;20477;-95
2023/10/13 01:00:32;;;;;;;4.38;4.07;;;;;;;;;;5993456;29;20054;-96
2023/10/13 01:03:35;;;;;;;5.15;4.80;;;;;;;;;;5987739;29;20127;-94
2023/10/13 01:06:37;;;;;;;4.00;3.80;;;;;;;;;;5985042;29;20053;-94
2023/10/13 01:09:49;;;;;;;4.35;4.15;;;;;;;;;;5974917;29;20046;-95
2023/10/13 01:12:52;;;;;;;5.10;4.55;;;;;;;;;;5992232;29;20042;-94
2023/10/13 01:15:54;;;;;;;4.95;4.55;;;;;;;;;;5993988;29;20516;-95
2023/10/13 01:18:59;;;;;;;4.28;4.07;;;;;;;;;;5987887;29;20085;-94
2023/10/13 01:22:06;;;;;;;3.72;3.63;;;;;;;;;;5986626;29;20102;-94
2023/10/13 01:25:13;;;;;;;4.45;4.25;;;;;;;;;;5987106;29;20062;-94
2023/10/13 01:28:18;;;;;;;4.57;4.38;;;;;;;;;;5988706;29;20046;-95
2023/10/13 01:31:30;;;;;;;5.05;4.75;;;;;;;;;;5994961;29;20046;-95
2023/10/13 01:34:33;;;;;;;5.50;5.22;;;;;;;;;;5971979;29;20046;-94
2023/10/13 01:37:35;;;;;;;4.85;4.55;;;;;;;;;;6007064;29;20498;-94
2023/10/13 01:40:37;;;;;;;4.90;4.65;;;;;;;;;;5992246;29;20063;-94
2023/10/13 01:43:39;;;;;;;5.63;5.22;;;;;;;;;;5995762;29;20050;-94
2023/10/13 01:46:47;;;;;;;5.43;4.53;;;;;;;;;;5986423;29;20099;-95
2023/10/13 01:49:50;;;;;;;4.82;4.63;;;;;;;;;;5979755;29;20080;-95
2023/10/13 01:53:11;;;;;;;5.18;4.88;;;;;;;;;;5988836;29;20050;-94
2023/10/13 01:56:14;;;;;;;4.72;4.53;;;;;;;;;;5986026;29;20687;-94
2023/10/13 01:59:17;;;;;;;5.97;5.05;;;;;;;;;;5982890;29;20402;-94
2023/10/13 02:02:34;;;;;;;6.18;5.68;;;;;;;;;;5979000;29;20058;-95
2023/10/13 02:05:36;;;;;;;4.63;4.25;;;;;;;;;;5983486;29;20077;-94
2023/10/13 02:08:42;;;;;;;4.63;4.38;;;;;;;;;;5995404;29;20046;-95
2023/10/13 02:11:45;;;;;;;4.90;4.53;;;;;;;;;;6010514;29;20416;-95
2023/10/13 02:14:49;;;;;;;6.82;6.32;;;;;;;;;;6008263;29;20077;-95
2023/10/13 02:17:54;;;;;;;5.30;4.88;;;;;;;;;;6001394;29;20047;-95
2023/10/13 02:21:04;;;;;;;5.45;5.10;;;;;;;;;;6002674;29;20054;-95
2023/10/13 02:24:18;;;;;;;5.95;5.55;;;;;;;;;;5975234;29;20057;-94
2023/10/13 02:27:23;;;;;;;5.15;4.78;;;;;;;;;;5990002;29;20522;-94
2023/10/13 02:30:25;;;;;;;5.72;5.43;;;;;;;;;;5980928;29;20047;-93
2023/10/13 02:33:30;;;;;;;7.22;6.72;;;;;;;;;;5990079;29;20301;-95
2023/10/13 02:36:51;;;;;;;4.78;4.32;;;;;;;;;;6002003;29;20056;-95
2023/10/13 02:39:57;;;;;;;5.25;4.72;;;;;;;;;;5994237;29;20058;-95
2023/10/13 02:43:01;;;;;;;7.65;5.28;;;;;;;;;;6008395;29;20057;-96
2023/10/13 02:46:06;;;;;;;6.38;5.90;;;;;;;;;;6021229;29;20035;-95
2023/10/13 02:49:19;;;;;;;3.70;3.50;;;;;;;;;;6012383;29;20122;-96
2023/10/13 02:56:07;;;;;;;5.78;5.32;;;;;;;;;;7127077;24;21178;-96
2023/10/13 02:59:14;;;;;;;4.75;4.45;;;;;;;;;;6024672;29;20056;-96
2023/10/13 03:05:43;;;;;;;4.35;4.05;;;;;;;;;;6005520;29;20055;-96
2023/10/13 03:12:26;;;;;;;4.22;4.00;;;;;;;;;;6150617;23;20053;-96
2023/10/13 03:15:33;;;;;;;4.43;4.22;;;;;;;;;;6248383;24;20058;-96
2023/10/13 03:18:36;;;;;;;3.25;3.15;;;;;;;;;;6044152;29;20050;-96
2023/10/13 03:21:44;;;;;;;4.63;4.40;;;;;;;;;;6042688;29;20075;-96
2023/10/13 03:24:47;;;;;;;4.25;3.95;;;;;;;;;;6043589;29;20098;-96
2023/10/13 03:30:57;;;;;;;6.85;4.63;;;;;;;;;;6018161;29;20054;-96
2023/10/13 03:34:11;;;;;;;;;;;;;;;;;;6030643;29;20030;-96
2023/10/13 03:37:43;;;;;;;3.70;3.50;;;;;;;;;;6021383;29;19924;-96
2023/10/13 03:40:56;;;;;;;4.05;3.85;;;;;;;;;;6042483;29;20050;-96
2023/10/13 03:44:17;;;;;;;3.67;3.47;;;;;;;;;;6041056;29;20058;-96
2023/10/13 03:51:14;;;;;;;7.10;4.90;;;;;;;;;;6275462;23;20058;-96
2023/10/13 03:54:17;;;;;;;3.85;3.65;;;;;;;;;;5984009;29;20114;-96
2023/10/13 03:57:25;;;;;;;4.15;3.95;;;;;;;;;;6001174;29;20080;-95
2023/10/13 04:00:28;;;;;;;4.75;4.45;;;;;;;;;;5993915;29;20045;-96
2023/10/13 04:03:38;;;;;;;3.97;3.78;;;;;;;;;;5993656;29;20031;-96
2023/10/13 04:19:28;;;;;;;5.13;4.53;;;;;;;;;;5974888;29;20054;-95
2023/10/13 04:26:08;;;;;;;4.93;4.22;;;;;;;;;;5984812;29;20123;-95
2023/10/13 04:29:27;;;;;;;3.78;3.58;;;;;;;;;;5986467;29;20050;-96
2023/10/13 04:32:38;;;;;;;4.68;4.32;;;;;;;;;;5977814;29;20146;-95
2023/10/13 04:35:57;;;;;;;5.03;4.68;;;;;;;;;;5977025;29;20114;-95
2023/10/13 04:39:09;;;;;;;3.60;3.45;;;;;;;;;;5985728;29;20118;-96
2023/10/13 04:42:39;;;;;;;4.13;3.92;;;;;;;;;;5968286;29;20058;-96
2023/10/13 04:45:53;;;;;;;4.13;3.50;;;;;;;;;;5979891;29;20061;-96
2023/10/13 04:49:09;;;;;;;3.90;3.60;;;;;;;;;;5986584;29;20122;-95
2023/10/13 05:50:04;;;;;;;5.00;4.72;;;;;;;;;;5966623;29;20055;-95
2023/10/13 06:30:57;;;;;;;3.40;3.30;;;;;;;;;;5998973;29;20085;-96
2023/10/13 06:34:15;;;;;;;4.10;3.90;;;;;;;;;;5981202;29;20048;-96
2023/10/13 06:45:15;;;;;;;2.63;2.53;;;;;;;;;;6579659;23;20034;-96
2023/10/13 06:48:21;;;;;;;3.83;3.63;;;;;;;;;;6043546;29;20124;-96
2023/10/13 06:51:25;;;;;;;3.17;3.08;;;;;;;;;;6033402;29;20560;-95
2023/10/13 06:54:28;;;;;;;3.67;3.47;;;;;;;;;;6023279;29;20050;-92
2023/10/13 06:57:34;;;;;;;3.05;2.95;;;;;;;;;;6015458;29;20481;-93
2023/10/13 07:00:38;;;;;;;3.30;3.20;;;;;;;;;;6021239;29;20124;-92
2023/10/13 07:03:40;;;;;;;3.63;3.53;;;;;;;;;;6014224;29;20057;-93
2023/10/13 07:06:47;;;;;;;3.92;3.72;;;;;;;;;;6012854;29;20057;-94
2023/10/13 07:09:55;;;;;;;3.45;3.35;;;;;;;;;;6021278;29;20061;-93
2023/10/13 07:13:00;;;;;;;3.13;3.03;;;;;;;;;;6025900;29;20182;-92
2023/10/13 07:16:05;;;;;;;10.50;3.70;;;;;;;;;;6018076;29;20504;-92
2023/10/13 07:19:17;;;;;;;3.88;3.67;;;;;;;;;;6023136;29;20139;-93
2023/10/13 07:22:23;;;;;;;3.55;3.30;;;;;;;;;;6018506;29;20061;-94
2023/10/13 07:25:26;;;;;;;3.03;2.92;;;;;;;;;;6029933;29;20053;-94
2023/10/13 07:28:35;;;;;;;3.65;3.47;;;;;;;;;;6033903;29;20483;-94
2023/10/13 07:31:44;;;;;;;3.22;3.13;;;;;;;;;;6032702;29;20058;-94
2023/10/13 07:34:48;;;;;;;2.50;2.50;;;;;;;;;;6041169;29;20045;-94
2023/10/13 07:37:55;;;;;;;2.90;2.80;;;;;;;;;;6047208;29;20070;-95
2023/10/13 07:41:07;;;;;;;4.25;3.85;;;;;;;;;;6044234;29;20048;-95
2023/10/13 07:44:13;;;;;;;3.45;3.28;;;;;;;;;;6027349;29;20148;-93
2023/10/13 07:47:17;;;;;;;4.00;3.67;;;;;;;;;;6022349;29;20085;-90
2023/10/13 07:50:25;;;;;;;5.40;3.50;;;;;;;;;;6018030;29;20065;-93
2023/10/13 07:53:34;;;;;;;3.42;2.97;;;;;;;;;;6024185;29;20493;-93
2023/10/13 07:56:48;;;;;;;3.28;3.17;;;;;;;;;;6033039;29;20053;-92
2023/10/13 07:59:53;;;;;;;3.33;3.22;;;;;;;;;;6023376;29;20424;-92
2023/10/13 08:09:30;;;;;;;3.40;3.30;;;;;;;;;;6028182;29;20097;-93
2023/10/13 08:12:36;;;;;;;3.47;3.38;;;;;;;;;;6032362;29;20046;-93
2023/10/13 08:15:47;;;;;;;2.95;2.85;;;;;;;;;;6024478;29;20041;-92
2023/10/13 08:18:50;;;;;;;3.20;3.10;;;;;;;;;;6024998;29;20056;-93
2023/10/13 08:21:59;;;;;;;3.25;3.15;;;;;;;;;;6030635;29;20065;-93
2023/10/13 08:38:16;;;;;;;2.53;2.42;;;;;;;;;;6042613;29;20041;-95
2023/10/13 08:41:53;;;;;;;6.43;2.72;;;;;;;;;;6054002;29;20056;-96
2023/10/13 08:45:04;;;;;;;5.15;3.30;;;;;;;;;;6060375;29;20077;-96
2023/10/13 08:48:19;;;;;;;3.28;3.13;;;;;;;;;;6053653;29;20029;-95
2023/10/13 08:55:04;;;;;;;3.05;2.95;;;;;;;;;;6049813;29;20045;-96
2023/10/13 08:58:15;;;;;;;12.00;3.10;;;;;;;;;;6031998;29;20042;-96
2023/10/13 09:01:48;;;;;;;3.38;3.28;;;;;;;;;;6031239;29;20990;-95
2023/10/13 09:04:59;;;;;;;3.60;3.50;;;;;;;;;;6035456;29;20049;-94
2023/10/13 09:08:08;;;;;;;3.55;3.45;;;;;;;;;;6034167;29;20048;-95
2023/10/13 09:11:14;;;;;;;2.95;2.85;;;;;;;;;;6019442;29;20037;-94
2023/10/13 09:14:37;;;;;;;2.95;2.85;;;;;;;;;;6032206;29;20124;-95
2023/10/13 09:17:47;;;;;;;3.47;3.35;;;;;;;;;;6034232;29;20045;-95
2023/10/13 09:21:25;;;;;;;3.28;3.17;;;;;;;;;;6032853;29;20138;-95
2023/10/13 09:24:31;;;;;;;3.67;3.58;;;;;;;;;;6030133;29;20042;-95
2023/10/13 09:27:37;;;;;;;3.05;2.95;;;;;;;;;;6033612;29;20053;-96
2023/10/13 09:30:47;;;;;;;3.75;3.65;;;;;;;;;;6032222;29;20122;-95
2023/10/13 09:33:55;;;;;;;2.90;2.80;;;;;;;;;;6028323;29;20159;-95
2023/10/13 09:36:58;;;;;;;3.30;3.20;;;;;;;;;;6032558;29;20037;-95
2023/10/13 09:40:05;;;;;;;2.95;2.85;;;;;;;;;;6032419;29;20053;-95
2023/10/13 09:43:08;;;;;;;3.53;3.33;;;;;;;;;;6036046;29;20095;-95
2023/10/13 09:46:19;;;;;;;3.33;3.22;;;;;;;;;;6021999;29;20231;-95
2023/10/13 09:49:44;;;;;;;3.90;3.70;;;;;;;;;;6024176;29;20117;-94
2023/10/13 09:52:46;;;;;;;2.70;2.60;;;;;;;;;;6026841;29;20049;-95
2023/10/13 09:55:50;;;;;;;2.90;2.80;;;;;;;;;;6026712;29;20048;-95
2023/10/13 09:59:14;;;;;;;3.70;3.28;;;;;;;;;;6027510;29;20037;-95
2023/10/13 10:02:25;;;;;;;3.78;3.58;;;;;;;;;;6020551;29;20441;-94
2023/10/13 10:05:27;;;;;;;2.92;2.85;;;;;;;;;;6015306;29;20061;-94
2023/10/13 10:08:38;;;;;;;2.88;2.78;;;;;;;;;;6019354;29;20465;-95
2023/10/13 10:12:00;;;;;;;3.20;3.10;;;;;;;;;;6022893;29;20050;-94
2023/10/13 10:15:30;;;;;;;3.03;2.92;;;;;;;;;;6024171;29;20132;-93
2023/10/13 10:18:32;;;;;;;3.87;3.67;;;;;;;;;;6014435;29;20416;-93
2023/10/13 10:21:35;;;;;;;3.20;3.10;;;;;;;;;;6017533;29;20389;-93
2023/10/13 10:24:38;;;;;;;3.10;2.97;;;;;;;;;;6020382;29;20527;-93
2023/10/13 10:27:41;;;;;;;3.95;3.80;;;;;;;;;;6026208;29;20068;-93
2023/10/13 10:30:43;;;;;;;3.25;3.15;;;;;;;;;;6016844;29;20174;-93
2023/10/13 10:33:50;;;;;;;6.60;3.97;;;;;;;;;;6022322;29;20461;-94
2023/10/13 10:36:58;;;;;;;3.72;3.53;;;;;;;;;;6025408;29;20520;-93
2023/10/13 10:40:01;;;;;;;6.10;3.70;;;;;;;;;;6024775;29;20049;-93
2023/10/13 10:43:08;;;;;;;3.28;3.17;;;;;;;;;;6026277;29;20513;-92
2023/10/13 10:46:40;;;;;;;9.40;3.47;;;;;;;;;;6021649;29;20495;-92
2023/10/13 10:49:42;;;;;;;3.33;3.22;;;;;;;;;;6017023;29;20045;-90
2023/10/13 10:52:44;;;;;;;3.67;3.58;;;;;;;;;;6021650;29;20398;-91
2023/10/13 10:55:45;;;;;;;13.27;3.83;;;;;;;;;;6024524;29;20389;-91
2023/10/13 10:58:48;;;;;;;4.40;3.47;;;;;;;;;;6025950;29;20049;-91
2023/10/13 11:01:53;;;;;;;3.35;3.25;;;;;;;;;;6026781;29;20052;-90
2023/10/13 11:04:57;;;;;;;3.72;3.53;;;;;;;;;;6026170;29;20061;-91
2023/10/13 11:07:59;;;;;;;3.92;3.70;;;;;;;;;;6025770;29;20073;-90
2023/10/13 11:11:05;;;;;;;3.22;3.13;;;;;;;;;;6028950;29;20526;-90
2023/10/13 11:14:22;;;;;;;2.95;2.85;;;;;;;;;;6025504;29;20271;-90
2023/10/13 11:17:26;;;;;;;3.75;3.55;;;;;;;;;;6025950;29;20049;-91
2023/10/13 11:20:43;;;;;;;3.47;3.30;;;;;;;;;;6022699;29;20559;-91
2023/10/13 11:23:54;;;;;;;4.15;3.95;;;;;;;;;;6021725;29;20048;-91
2023/10/13 11:26:57;;;;;;;2.95;2.85;;;;;;;;;;6037782;29;20053;-91
2023/10/13 11:30:05;;;;;;;2.97;2.88;;;;;;;;;;6022174;29;20084;-90
2023/10/13 11:33:08;;;;;;;4.68;3.10;;;;;;;;;;6022037;29;20128;-90
2023/10/13 11:36:17;;;;;;;2.90;2.63;;;;;;;;;;6022918;29;20049;-90
2023/10/13 11:39:33;;;;;;;3.78;3.58;;;;;;;;;;6021092;29;20146;-90
2023/10/13 11:42:36;;;;;;;3.05;2.95;;;;;;;;;;6027234;29;20132;-90
2023/10/13 11:45:37;;;;;;;3.28;3.08;;;;;;;;;;6023740;29;20049;-90
2023/10/13 11:48:41;;;;;;;3.13;3.03;;;;;;;;;;6025735;29;20525;-90
2023/10/13 11:51:46;;;;;;;3.35;3.15;;;;;;;;;;6021241;29;20046;-91
2023/10/13 11:54:48;;;;;;;4.30;4.05;;;;;;;;;;6021638;29;20049;-91
2023/10/13 11:57:50;;;;;;;2.95;2.85;;;;;;;;;;6027662;29;20145;-91
2023/10/13 12:00:53;;;;;;;3.97;3.63;;;;;;;;;;6028114;29;20057;-90
2023/10/13 12:07:45;;;;;;;3.53;3.42;;;;;;;;;;5982036;29;20062;-91
2023/10/13 12:10:59;;;;;;;3.75;3.55;;;;;;;;;;5999854;29;20081;-90
2023/10/13 12:14:11;;;;;;;3.60;3.38;;;;;;;;;;5977370;29;20045;-92
2023/10/13 12:17:17;;;;;;;3.33;3.22;;;;;;;;;;5993583;29;20049;-92
2023/10/13 12:20:32;;;;;;;3.63;3.42;;;;;;;;;;5996363;29;20050;-92
2023/10/13 12:23:36;;;;;;;3.85;3.75;;;;;;;;;;5999729;29;20143;-92
2023/10/13 12:26:41;;;;;;;4.18;3.22;;;;;;;;;;6006738;29;20057;-91
2023/10/13 12:29:46;;;;;;;4.47;3.67;;;;;;;;;;6002026;29;20061;-93
2023/10/13 12:33:08;;;;;;;4.07;3.78;;;;;;;;;;5983079;29;20594;-92
2023/10/13 12:49:48;;;;;;;15.85;3.30;;;;;;;;;;6018559;29;19950;-92
2023/10/13 12:52:39;;;;;;;3.35;3.15;;;;;;;;;;6022580;29;20068;-92
2023/10/13 12:55:41;;;;;;;4.32;3.88;;;;;;;;;;6023122;29;20720;-93
2023/10/13 12:58:53;;;;;;;4.22;3.83;;;;;;;;;;6018162;29;20053;-92
2023/10/13 13:01:56;;;;;;;4.28;4.07;;;;;;;;;;6019742;29;20084;-93
2023/10/13 13:05:13;;;;;;;4.68;4.20;;;;;;;;;;6022526;29;20607;-92
2023/10/13 13:08:21;;;;;;;13.00;4.90;;;;;;;;;;6024966;29;20074;-92
2023/10/13 13:11:24;;;;;;;3.80;3.50;;;;;;;;;;6024263;29;20856;-93
2023/10/13 13:14:34;;;;;;;2.70;2.60;;;;;;;;;;6023570;29;20060;-91
2023/10/13 13:17:38;;;;;;;2.83;2.72;;;;;;;;;;6020600;29;20433;-93
2023/10/13 13:20:52;;;;;;;3.88;3.22;;;;;;;;;;6023365;29;20057;-93
2023/10/13 13:23:55;;;;;;;8.80;3.25;;;;;;;;;;6021263;29;20054;-92
2023/10/13 13:27:02;;;;;;;3.00;2.90;;;;;;;;;;6021308;29;20113;-92
2023/10/13 13:30:12;;;;;;;3.72;3.53;;;;;;;;;;6002125;29;20046;-92
2023/10/13 13:33:16;;;;;;;2.85;2.75;;;;;;;;;;6024347;29;20051;-92
2023/10/13 13:36:19;;;;;;;3.50;3.40;;;;;;;;;;6020034;29;21043;-94
2023/10/13 13:39:30;;;;;;;2.95;2.85;;;;;;;;;;6020472;29;20053;-93
2023/10/13 13:42:36;;;;;;;3.50;3.30;;;;;;;;;;6025017;29;20526;-93
2023/10/13 13:45:41;;;;;;;3.70;3.50;;;;;;;;;;6019108;29;20045;-92
2023/10/13 13:48:47;;;;;;;4.40;4.05;;;;;;;;;;6020555;29;20049;-92
2023/10/13 13:51:52;;;;;;;2.83;2.72;;;;;;;;;;6025661;29;20196;-93
2023/10/13 13:54:54;;;;;;;3.00;2.88;;;;;;;;;;6022122;29;20075;-94
2023/10/13 13:57:56;;;;;;;5.65;3.70;;;;;;;;;;6021030;29;20150;-93
2023/10/13 14:01:18;;;;;;;3.15;3.05;;;;;;;;;;6021444;29;20101;-93
2023/10/13 14:04:20;;;;;;;3.50;3.33;;;;;;;;;;6016521;29;20106;-93
2023/10/13 14:07:32;;;;;;;4.78;4.47;;;;;;;;;;6020353;29;20484;-95
2023/10/13 14:11:13;;;;;;;3.95;3.70;;;;;;;;;;6015378;29;20061;-93
2023/10/13 14:13:56;;;;;;;3.63;3.50;;;;;;;;;;6018702;29;20564;-94
2023/10/13 14:17:07;;;;;;;3.25;3.15;;;;;;;;;;6019353;29;20121;-93
2023/10/13 14:20:14;;;;;;;3.58;3.47;;;;;;;;;;6016578;29;20829;-93
2023/10/13 14:23:16;;;;;;;3.33;3.13;;;;;;;;;;6022004;29;20045;-93
2023/10/13 14:26:25;;;;;;;3.58;3.47;;;;;;;;;;6015045;29;20517;-94
2023/10/13 14:29:27;;;;;;;20.47;4.03;;;;;;;;;;6005228;29;20046;-94
2023/10/13 14:32:29;;;;;;;4.10;3.85;;;;;;;;;;6023813;29;20434;-95
2023/10/13 14:35:35;;;;;;;4.03;3.75;;;;;;;;;;6026297;29;20136;-95
2023/10/13 14:38:37;;;;;;;5.65;5.35;;;;;;;;;;6028504;29;20061;-93
2023/10/13 14:41:38;;;;;;;2.58;2.47;;;;;;;;;;6028280;29;20053;-91
2023/10/13 14:44:40;;;;;;;2.63;2.53;;;;;;;;;;6027804;29;20532;-93
2023/10/13 14:47:43;;;;;;;2.78;2.65;;;;;;;;;;6025775;29;20514;-94
2023/10/13 14:50:45;;;;;;;3.50;3.20;;;;;;;;;;6021243;29;20064;-94
2023/10/13 14:53:47;;;;;;;3.65;3.35;;;;;;;;;;6026020;29;20084;-94
2023/10/13 14:56:49;;;;;;;3.42;3.20;;;;;;;;;;6023351;29;20061;-93
2023/10/13 14:59:54;;;;;;;6.15;3.53;;;;;;;;;;6020840;29;20057;-93
2023/10/13 15:02:56;;;;;;;3.78;3.47;;;;;;;;;;6026753;29;20052;-93
2023/10/13 15:05:58;;;;;;;2.88;2.78;;;;;;;;;;6028151;29;20469;-92
2023/10/13 15:09:00;;;;;;;3.65;3.45;;;;;;;;;;6023401;29;20140;-93
2023/10/13 15:12:05;;;;;;;6.53;3.00;;;;;;;;;;6029230;29;20113;-92
2023/10/13 15:15:13;;;;;;;3.20;3.03;;;;;;;;;;6023493;29;20599;-92
2023/10/13 15:18:14;;;;;;;3.25;3.05;;;;;;;;;;6027257;29;20488;-93
2023/10/13 15:21:32;;;;;;;3.47;3.22;;;;;;;;;;6028379;29;20049;-91
2023/10/13 15:24:42;;;;;;;2.92;2.83;;;;;;;;;;6025917;29;20049;-93
2023/10/13 15:27:50;;;;;;;3.38;3.17;;;;;;;;;;6023003;29;20053;-92
2023/10/13 15:30:56;;;;;;;3.17;2.97;;;;;;;;;;6021651;29;20045;-93
2023/10/13 15:33:58;;;;;;;3.50;3.20;;;;;;;;;;6023353;29;20050;-92
2023/10/13 15:37:00;;;;;;;4.18;3.92;;;;;;;;;;6024933;29;20089;-92
2023/10/13 15:40:04;;;;;;;2.67;2.58;;;;;;;;;;6026440;29;20046;-91
2023/10/13 15:43:06;;;;;;;3.28;2.72;;;;;;;;;;6028267;29;20166;-92
2023/10/13 15:46:14;;;;;;;3.55;3.35;;;;;;;;;;6027616;29;20045;-92
2023/10/13 15:49:36;;;;;;;3.55;3.35;;;;;;;;;;6018243;29;20409;-92
2023/10/13 15:52:38;;;;;;;4.13;3.92;;;;;;;;;;6022113;29;20052;-92
2023/10/13 15:55:40;;;;;;;2.42;2.38;;;;;;;;;;6025525;29;20136;-91
2023/10/13 15:58:49;;;;;;;3.97;3.65;;;;;;;;;;6025953;29;20410;-92
2023/10/13 16:01:57;;;;;;;2.80;2.70;;;;;;;;;;6013882;29;20064;-92
2023/10/13 16:04:59;;;;;;;2.60;2.50;;;;;;;;;;6027090;29;20177;-92
2023/10/13 16:08:03;;;;;;;3.20;3.00;;;;;;;;;;6028266;29;20402;-92
2023/10/13 16:11:11;;;;;;;3.42;3.25;;;;;;;;;;6024985;29;20042;-91
2023/10/13 16:14:17;;;;;;;12.68;3.17;;;;;;;;;;6025093;29;20054;-91
2023/10/13 16:17:22;;;;;;;3.63;3.42;;;;;;;;;;6023180;29;20049;-91
2023/10/13 16:20:24;;;;;;;3.10;2.97;;;;;;;;;;6016373;29;20045;-91
2023/10/13 16:23:27;;;;;;;3.17;2.97;;;;;;;;;;6024288;29;20101;-91
2023/10/13 16:26:30;;;;;;;3.00;2.85;;;;;;;;;;6019807;29;20040;-92
2023/10/13 16:29:32;;;;;;;2.75;2.65;;;;;;;;;;6024924;29;20504;-91
2023/10/13 16:32:34;;;;;;;2.92;2.83;;;;;;;;;;6007479;29;20053;-90
2023/10/13 16:35:36;;;;;;;3.65;3.35;;;;;;;;;;6026279;29;20056;-92
2023/10/13 16:38:38;;;;;;;4.63;4.05;;;;;;;;;;6010155;29;20053;-90
2023/10/13 16:41:41;;;;;;;2.83;2.72;;;;;;;;;;6026434;29;20540;-91
2023/10/13 16:44:44;;;;;;;3.17;2.97;;;;;;;;;;6020885;29;20050;-91
2023/10/13 16:47:46;;;;;;;3.95;3.65;;;;;;;;;;6023396;29;20049;-91
2023/10/13 16:50:47;;;;;;;7.18;3.75;;;;;;;;;;6021378;29;20041;-91
2023/10/13 16:53:50;;;;;;;7.20;3.13;;;;;;;;;;6022695;29;20049;-91
2023/10/13 16:56:55;;;;;;;3.05;2.95;;;;;;;;;;6006349;29;20082;-91
2023/10/13 16:59:57;;;;;;;3.17;2.90;;;;;;;;;;6022762;29;20073;-91
2023/10/13 17:02:59;;;;;;;3.10;2.95;;;;;;;;;;6019766;29;20057;-91
2023/10/13 17:06:01;;;;;;;3.35;3.15;;;;;;;;;;6035017;29;20524;-90
2023/10/13 17:09:04;;;;;;;3.88;3.53;;;;;;;;;;6027424;29;20050;-91
2023/10/13 17:12:06;;;;;;;3.10;2.97;;;;;;;;;;6023329;29;20049;-92
2023/10/13 17:15:19;;;;;;;3.03;2.83;;;;;;;;;;6022545;29;20044;-92
2023/10/13 17:18:24;;;;;;;3.17;2.88;;;;;;;;;;6026912;29;20045;-91
2023/10/13 17:21:28;;;;;;;3.55;3.35;;;;;;;;;;6026438;29;20049;-91
2023/10/13 17:24:33;;;;;;;3.55;3.35;;;;;;;;;;6022892;29;20057;-91
2023/10/13 17:27:37;;;;;;;4.25;4.05;;;;;;;;;;6017106;29;20473;-91
2023/10/13 17:30:41;;;;;;;3.58;3.38;;;;;;;;;;6023621;29;20440;-91
2023/10/13 17:33:43;;;;;;;3.72;3.33;;;;;;;;;;6022421;29;20057;-91
2023/10/13 17:36:48;;;;;;;3.33;3.13;;;;;;;;;;6024129;29;20052;-90
2023/10/13 17:39:51;;;;;;;3.05;2.95;;;;;;;;;;6026348;29;20083;-90
2023/10/13 17:42:54;;;;;;;3.92;3.72;;;;;;;;;;6018976;29;20513;-91
2023/10/13 17:45:56;;;;;;;2.72;2.63;;;;;;;;;;6022380;29;20049;-90
2023/10/13 17:49:01;;;;;;;4.80;3.22;;;;;;;;;;6023163;29;20175;-91
2023/10/13 17:52:04;;;;;;;2.97;2.88;;;;;;;;;;6023126;29;20041;-90
2023/10/13 17:55:10;;;;;;;3.67;3.47;;;;;;;;;;6007640;29;20049;-90
2023/10/13 17:58:11;;;;;;;3.42;3.33;;;;;;;;;;6022027;29;20042;-91
2023/10/13 18:01:22;;;;;;;4.53;3.25;;;;;;;;;;6025434;29;20124;-90
2023/10/13 18:04:24;;;;;;;2.55;2.50;;;;;;;;;;6022847;29;20049;-90
2023/10/13 18:07:26;;;;;;;4.65;3.45;;;;;;;;;;6017111;29;20049;-89
2023/10/13 18:10:30;;;;;;;12.00;3.85;;;;;;;;;;6026185;29;20045;-89
2023/10/13 18:13:32;;;;;;;3.97;3.30;;;;;;;;;;6019762;29;20458;-89
2023/10/13 18:16:35;;;;;;;3.17;3.08;;;;;;;;;;6019512;29;20553;-89
2023/10/13 18:19:38;;;;;;;4.50;3.30;;;;;;;;;;6015803;29;20148;-91
2023/10/13 18:22:40;;;;;;;2.75;2.65;;;;;;;;;;6025348;29;20058;-92
2023/10/13 18:25:45;;;;;;;3.50;3.30;;;;;;;;;;6022781;29;20840;-92
2023/10/13 18:28:50;;;;;;;2.95;2.85;;;;;;;;;;6020295;29;20053;-92
2023/10/13 18:31:52;;;;;;;3.58;3.40;;;;;;;;;;6022588;29;20516;-92
2023/10/13 18:34:54;;;;;;;3.83;3.63;;;;;;;;;;6024846;29;20140;-92
2023/10/13 18:37:59;;;;;;;3.10;2.90;;;;;;;;;;6019362;29;20166;-92
2023/10/13 18:41:01;;;;;;;3.45;3.25;;;;;;;;;;6017952;29;20519;-92
2023/10/13 18:44:09;;;;;;;3.05;2.83;;;;;;;;;;6021411;29;20057;-91
2023/10/13 18:47:12;;;;;;;3.30;3.15;;;;;;;;;;6024331;29;20524;-91
2023/10/13 18:50:15;;;;;;;3.55;3.40;;;;;;;;;;6025598;29;20049;-93
2023/10/13 18:53:23;;;;;;;5.13;3.25;;;;;;;;;;6020748;29;20195;-92
2023/10/13 18:56:25;;;;;;;2.75;2.65;;;;;;;;;;6025882;29;20632;-91
2023/10/13 18:59:27;;;;;;;2.83;2.72;;;;;;;;;;6022312;29;20136;-92
2023/10/13 19:02:29;;;;;;;9.73;4.30;;;;;;;;;;6016914;29;20049;-91
2023/10/13 19:05:31;;;;;;;12.25;3.90;;;;;;;;;;6024221;29;20065;-92
2023/10/13 19:08:33;;;;;;;3.30;3.13;;;;;;;;;;6026197;29;20060;-91
2023/10/13 19:11:36;;;;;;;3.72;3.35;;;;;;;;;;6021261;29;20053;-91
2023/10/13 19:14:39;;;;;;;6.28;3.65;;;;;;;;;;6025359;29;20102;-91
2023/10/13 19:17:40;;;;;;;3.58;3.38;;;;;;;;;;6024557;29;20057;-93
2023/10/13 19:20:42;;;;;;;2.95;2.75;;;;;;;;;;6029469;29;20057;-94
2023/10/13 19:23:48;;;;;;;9.48;4.22;;;;;;;;;;6029559;29;20084;-95
2023/10/13 19:26:53;;;;;;;3.13;3.03;;;;;;;;;;6021166;29;20517;-95
2023/10/13 19:29:55;;;;;;;3.00;2.83;;;;;;;;;;6028928;29;20491;-94
2023/10/13 19:32:58;;;;;;;3.03;2.92;;;;;;;;;;6021703;29;20062;-94
2023/10/13 19:36:04;;;;;;;3.17;3.08;;;;;;;;;;6032696;29;20054;-94
2023/10/13 19:39:05;;;;;;;4.28;4.07;;;;;;;;;;6025640;29;20115;-95
2023/10/13 19:42:10;;;;;;;4.05;3.75;;;;;;;;;;6026964;29;20424;-94
2023/10/13 19:45:13;;;;;;;4.78;4.55;;;;;;;;;;6026552;29;20060;-94
2023/10/13 19:48:15;;;;;;;4.80;4.57;;;;;;;;;;6027158;29;20128;-93
2023/10/13 19:51:20;;;;;;;3.08;2.97;;;;;;;;;;6029406;29;20061;-95
2023/10/13 19:54:22;;;;;;;3.00;2.90;;;;;;;;;;6022722;29;20412;-94
2023/10/13 19:57:26;;;;;;;3.30;3.20;;;;;;;;;;6024442;29;20484;-94
2023/10/13 20:00:33;;;;;;;3.38;3.28;;;;;;;;;;6022372;29;20057;-93
2023/10/13 20:03:35;;;;;;;3.92;3.58;;;;;;;;;;6025785;29;20053;-94
2023/10/13 20:06:39;;;;;;;3.47;3.33;;;;;;;;;;6027164;29;20053;-93
2023/10/13 20:09:42;;;;;;;3.63;3.33;;;;;;;;;;6027279;29;20314;-92
2023/10/13 20:12:44;;;;;;;3.30;3.13;;;;;;;;;;6029178;29;20054;-93
2023/10/13 20:15:48;;;;;;;3.05;2.92;;;;;;;;;;6027600;29;20045;-92
2023/10/13 20:18:54;;;;;;;4.47;4.18;;;;;;;;;;6026326;29;20050;-91
2023/10/13 20:21:57;;;;;;;5.63;5.32;;;;;;;;;;6026557;29;20103;-93
2023/10/13 20:24:59;;;;;;;3.38;3.25;;;;;;;;;;6025356;29;20372;-92
2023/10/13 20:28:01;;;;;;;3.85;3.60;;;;;;;;;;6021884;29;20546;-93
2023/10/13 20:31:04;;;;;;;3.60;3.40;;;;;;;;;;6025071;29;20088;-92
2023/10/13 20:34:12;;;;;;;3.75;3.55;;;;;;;;;;6035965;29;20516;-92
2023/10/13 20:37:18;;;;;;;4.07;3.80;;;;;;;;;;6027165;29;20053;-92
2023/10/13 20:40:21;;;;;;;3.80;3.55;;;;;;;;;;6023723;29;20046;-93
2023/10/13 20:43:23;;;;;;;3.80;3.60;;;;;;;;;;6020130;29;20125;-93
2023/10/13 20:46:26;;;;;;;4.70;4.22;;;;;;;;;;6018199;29;20053;-94
2023/10/13 20:49:29;;;;;;;3.30;3.20;;;;;;;;;;6018611;29;20041;-94
2023/10/13 20:52:31;;;;;;;3.05;2.85;;;;;;;;;;6022680;29;20259;-94
2023/10/13 20:55:37;;;;;;;3.28;3.17;;;;;;;;;;6023934;29;20057;-96
2023/10/13 20:58:43;;;;;;;4.50;3.40;;;;;;;;;;6014334;29;20053;-95
2023/10/13 21:01:47;;;;;;;4.18;3.38;;;;;;;;;;6023793;29;20041;-95
2023/10/13 21:04:50;;;;;;;9.57;4.30;;;;;;;;;;6024412;29;20428;-95
2023/10/13 21:07:53;;;;;;;3.90;3.75;;;;;;;;;;6006670;29;20076;-95
2023/10/13 21:10:59;;;;;;;3.38;3.28;;;;;;;;;;6025338;29;20053;-94
2023/10/13 21:14:01;;;;;;;5.22;4.68;;;;;;;;;;6021452;29;20056;-93
2023/10/13 21:17:03;;;;;;;4.22;3.92;;;;;;;;;;6022212;29;20522;-94
2023/10/13 21:20:09;;;;;;;3.92;3.72;;;;;;;;;;6017351;29;20042;-94
2023/10/13 21:23:11;;;;;;;3.33;3.22;;;;;;;;;;6019352;29;20041;-94
2023/10/13 21:26:28;;;;;;;4.32;4.03;;;;;;;;;;6023942;29;20532;-94
2023/10/13 21:29:32;;;;;;;3.90;3.70;;;;;;;;;;6019521;29;20041;-94
2023/10/13 21:32:34;;;;;;;6.97;3.88;;;;;;;;;;6024756;29;20463;-96
2023/10/13 21:35:39;;;;;;;4.55;4.35;;;;;;;;;;6025324;29;20123;-96